sensor_id;sensor_type;location;lat;lon;timestamp;pressure;altitude;pressure_sealevel;temperature;humidity
41312;BME280;27061;41.648;24.568;2022-12-05T00:03:45;86531.81;;;5.16;72.37
41312;BME280;27061;41.648;24.568;2022-12-05T00:06:13;86485.34;;;4.86;72.26
41312;BME280;27061;41.648;24.568;2022-12-05T00:08:40;86515.91;;;5.08;71.50
41312;BME280;27061;41.648;24.568;2022-12-05T00:11:12;86519.31;;;5.09;71.34
41312;BME280;27061;41.648;24.568;2022-12-05T00:13:40;86544.22;;;5.21;71.08
41312;BME280;27061;41.648;24.568;2022-12-05T00:16:10;86538.03;;;5.21;71.47
41312;BME280;27061;41.648;24.568;2022-12-05T00:18:37;86535.22;;;5.14;71.47
41312;BME280;27061;41.648;24.568;2022-12-05T00:21:05;86508.53;;;4.79;71.67
41312;BME280;27061;41.648;24.568;2022-12-05T00:23:33;86506.31;;;4.69;71.83
41312;BME280;27061;41.648;24.568;2022-12-05T00:26:02;86540.50;;;5.02;72.18
41312;BME280;27061;41.648;24.568;2022-12-05T00:28:33;86521.00;;;4.86;72.78
41312;BME280;27061;41.648;24.568;2022-12-05T00:31:05;86550.22;;;5.09;72.57
41312;BME280;27061;41.648;24.568;2022-12-05T00:33:33;86512.75;;;4.84;72.25
41312;BME280;27061;41.648;24.568;2022-12-05T00:36:08;86555.03;;;5.11;72.11
41312;BME280;27061;41.648;24.568;2022-12-05T00:38:36;86546.09;;;5.10;72.25
41312;BME280;27061;41.648;24.568;2022-12-05T00:41:14;86515.00;;;4.96;72.22
41312;BME280;27061;41.648;24.568;2022-12-05T00:43:43;86503.75;;;4.79;71.74
41312;BME280;27061;41.648;24.568;2022-12-05T00:46:13;86537.91;;;5.12;72.06
41312;BME280;27061;41.648;24.568;2022-12-05T00:48:41;86534.44;;;5.10;72.37
41312;BME280;27061;41.648;24.568;2022-12-05T00:53:40;86532.50;;;5.17;71.92
41312;BME280;27061;41.648;24.568;2022-12-05T00:56:14;86521.34;;;5.06;71.74
41312;BME280;27061;41.648;24.568;2022-12-05T00:58:41;86504.66;;;4.92;71.84
41312;BME280;27061;41.648;24.568;2022-12-05T01:01:13;86472.66;;;4.65;72.04
41312;BME280;27061;41.648;24.568;2022-12-05T01:03:41;86482.50;;;4.80;71.95
41312;BME280;27061;41.648;24.568;2022-12-05T01:06:10;86504.66;;;4.92;71.94
41312;BME280;27061;41.648;24.568;2022-12-05T01:08:38;86519.34;;;5.11;72.00
41312;BME280;27061;41.648;24.568;2022-12-05T01:11:06;86515.97;;;5.12;72.09
41312;BME280;27061;41.648;24.568;2022-12-05T01:13:34;86464.59;;;4.75;71.85
41312;BME280;27061;41.648;24.568;2022-12-05T01:16:01;86482.66;;;4.90;71.40
41312;BME280;27061;41.648;24.568;2022-12-05T01:18:28;86483.47;;;4.97;71.37
41312;BME280;27061;41.648;24.568;2022-12-05T01:20:56;86496.66;;;5.06;71.78
41312;BME280;27061;41.648;24.568;2022-12-05T01:23:23;86485.53;;;4.98;71.61
41312;BME280;27061;41.648;24.568;2022-12-05T01:25:51;86516.75;;;5.19;71.79
41312;BME280;27061;41.648;24.568;2022-12-05T01:28:18;86499.31;;;5.02;72.11
41312;BME280;27061;41.648;24.568;2022-12-05T01:30:47;86491.78;;;5.03;71.87
41312;BME280;27061;41.648;24.568;2022-12-05T01:33:15;86513.38;;;5.23;72.22
41312;BME280;27061;41.648;24.568;2022-12-05T01:35:43;86505.09;;;5.21;72.36
41312;BME280;27061;41.648;24.568;2022-12-05T01:38:11;86501.66;;;5.18;72.90
41312;BME280;27061;41.648;24.568;2022-12-05T01:40:39;86503.75;;;5.22;72.81
41312;BME280;27061;41.648;24.568;2022-12-05T01:43:14;86499.72;;;5.27;72.43
41312;BME280;27061;41.648;24.568;2022-12-05T01:45:44;86488.63;;;5.19;71.79
41312;BME280;27061;41.648;24.568;2022-12-05T01:48:29;86456.06;;;5.01;71.91
41312;BME280;27061;41.648;24.568;2022-12-05T01:50:58;86470.72;;;5.15;72.12
41312;BME280;27061;41.648;24.568;2022-12-05T01:53:27;86489.47;;;5.29;72.19
41312;BME280;27061;41.648;24.568;2022-12-05T01:55:54;86467.88;;;5.09;72.83
41312;BME280;27061;41.648;24.568;2022-12-05T01:58:23;86484.59;;;5.26;72.61
41312;BME280;27061;41.648;24.568;2022-12-05T02:00:55;86474.81;;;5.14;72.60
41312;BME280;27061;41.648;24.568;2022-12-05T02:03:22;86454.09;;;5.05;72.91
41312;BME280;27061;41.648;24.568;2022-12-05T02:05:51;86449.94;;;5.02;72.71
41312;BME280;27061;41.648;24.568;2022-12-05T02:08:20;86463.72;;;5.06;72.44
41312;BME280;27061;41.648;24.568;2022-12-05T02:10:52;86480.50;;;5.27;73.11
41312;BME280;27061;41.648;24.568;2022-12-05T02:30:09;86476.34;;;5.24;72.53
41312;BME280;27061;41.648;24.568;2022-12-05T02:41:01;86480.44;;;5.23;72.60
41312;BME280;27061;41.648;24.568;2022-12-05T02:44:06;86425.13;;;4.94;72.55
41312;BME280;27061;41.648;24.568;2022-12-05T02:46:39;86461.00;;;5.08;73.14
41312;BME280;27061;41.648;24.568;2022-12-05T02:49:09;86476.41;;;5.28;73.18
41312;BME280;27061;41.648;24.568;2022-12-05T02:51:41;86437.47;;;4.95;72.99
41312;BME280;27061;41.648;24.568;2022-12-05T02:54:14;86458.22;;;5.06;72.74
41312;BME280;27061;41.648;24.568;2022-12-05T02:56:43;86468.56;;;5.10;72.31
41312;BME280;27061;41.648;24.568;2022-12-05T02:59:12;86441.59;;;4.96;72.33
41312;BME280;27061;41.648;24.568;2022-12-05T03:01:47;86477.72;;;5.25;72.03
41312;BME280;27061;41.648;24.568;2022-12-05T03:04:16;86430.44;;;4.84;72.73
41312;BME280;27061;41.648;24.568;2022-12-05T03:06:56;86457.34;;;4.94;73.24
41312;BME280;27061;41.648;24.568;2022-12-05T03:12:09;86429.63;;;4.77;73.50
41312;BME280;27061;41.648;24.568;2022-12-05T03:14:43;86462.22;;;4.97;73.62
41312;BME280;27061;41.648;24.568;2022-12-05T03:17:16;86444.22;;;4.88;73.33
41312;BME280;27061;41.648;24.568;2022-12-05T03:20:04;86485.09;;;5.14;73.89
41312;BME280;27061;41.648;24.568;2022-12-05T03:25:07;86444.22;;;4.88;73.63
41312;BME280;27061;41.648;24.568;2022-12-05T03:30:28;86483.81;;;5.19;73.16
41312;BME280;27061;41.648;24.568;2022-12-05T03:33:16;86445.66;;;4.93;73.05
41312;BME280;27061;41.648;24.568;2022-12-05T03:38:32;86470.66;;;5.11;73.23
41312;BME280;27061;41.648;24.568;2022-12-05T03:44:12;86488.63;;;5.21;73.62
41312;BME280;27061;41.648;24.568;2022-12-05T03:49:29;86495.53;;;5.24;73.33
41312;BME280;27061;41.648;24.568;2022-12-05T03:54:44;86483.63;;;5.09;73.51
41312;BME280;27061;41.648;24.568;2022-12-05T03:57:14;86498.22;;;5.18;73.47
41312;BME280;27061;41.648;24.568;2022-12-05T03:59:50;86489.91;;;5.13;73.68
41312;BME280;27061;41.648;24.568;2022-12-05T04:02:29;86505.09;;;5.21;73.61
41312;BME280;27061;41.648;24.568;2022-12-05T04:05:05;86503.78;;;5.24;73.40
41312;BME280;27061;41.648;24.568;2022-12-05T04:07:37;86505.22;;;5.27;73.41
41312;BME280;27061;41.648;24.568;2022-12-05T04:10:11;86505.13;;;5.23;73.57
41312;BME280;27061;41.648;24.568;2022-12-05T04:12:40;86478.13;;;5.07;73.82
41312;BME280;27061;41.648;24.568;2022-12-05T04:15:18;86497.56;;;5.19;74.09
41312;BME280;27061;41.648;24.568;2022-12-05T04:17:59;86457.41;;;4.98;74.15
41312;BME280;27061;41.648;24.568;2022-12-05T04:20:38;86491.50;;;5.27;73.82
41312;BME280;27061;41.648;24.568;2022-12-05T04:23:25;86456.16;;;5.05;73.44
41312;BME280;27061;41.648;24.568;2022-12-05T04:26:11;86449.28;;;5.04;74.14
41312;BME280;27061;41.648;24.568;2022-12-05T04:28:48;86470.84;;;5.24;73.97
41312;BME280;27061;41.648;24.568;2022-12-05T04:31:26;86473.50;;;5.20;73.57
41312;BME280;27061;41.648;24.568;2022-12-05T04:34:04;86461.06;;;5.12;74.03
41312;BME280;27061;41.648;24.568;2022-12-05T04:41:35;86452.66;;;5.02;73.93
41312;BME280;27061;41.648;24.568;2022-12-05T04:44:07;86451.25;;;4.99;73.78
41312;BME280;27061;41.648;24.568;2022-12-05T04:46:37;86461.59;;;5.03;74.08
41312;BME280;27061;41.648;24.568;2022-12-05T04:49:09;86442.38;;;5.03;73.93
41312;BME280;27061;41.648;24.568;2022-12-05T04:51:38;86461.75;;;5.13;73.85
41312;BME280;27061;41.648;24.568;2022-12-05T04:54:19;86487.50;;;5.36;73.82
41312;BME280;27061;41.648;24.568;2022-12-05T04:56:50;86420.28;;;4.93;73.06
41312;BME280;27061;41.648;24.568;2022-12-05T04:59:25;86432.72;;;5.00;72.87
41312;BME280;27061;41.648;24.568;2022-12-05T05:01:59;86450.03;;;5.08;73.19
41312;BME280;27061;41.648;24.568;2022-12-05T05:04:35;86486.13;;;5.35;72.99
41312;BME280;27061;41.648;24.568;2022-12-05T05:07:07;86490.28;;;5.38;72.14
41312;BME280;27061;41.648;24.568;2022-12-05T05:09:35;86487.38;;;5.28;71.69
41312;BME280;27061;41.648;24.568;2022-12-05T05:12:03;86479.00;;;5.18;71.70
41312;BME280;27061;41.648;24.568;2022-12-05T05:14:30;86467.88;;;5.09;71.71
41312;BME280;27061;41.648;24.568;2022-12-05T05:16:57;86485.19;;;5.18;71.91
41312;BME280;27061;41.648;24.568;2022-12-05T05:19:24;86495.69;;;5.34;71.37
41312;BME280;27061;41.648;24.568;2022-12-05T05:21:51;86498.38;;;5.28;71.90
41312;BME280;27061;41.648;24.568;2022-12-05T05:24:19;86492.72;;;5.20;71.76
41312;BME280;27061;41.648;24.568;2022-12-05T05:26:47;86488.53;;;5.14;71.82
41312;BME280;27061;41.648;24.568;2022-12-05T05:29:22;86487.16;;;5.13;71.93
41312;BME280;27061;41.648;24.568;2022-12-05T05:31:49;86502.97;;;5.15;71.51
41312;BME280;27061;41.648;24.568;2022-12-05T05:34:16;86446.69;;;4.72;71.58
41312;BME280;27061;41.648;24.568;2022-12-05T05:36:43;86507.84;;;5.19;71.30
41312;BME280;27061;41.648;24.568;2022-12-05T05:39:13;86511.94;;;5.18;71.63
41312;BME280;27061;41.648;24.568;2022-12-05T05:41:41;86480.59;;;4.91;71.55
41312;BME280;27061;41.648;24.568;2022-12-05T05:44:08;86510.47;;;5.12;71.91
41312;BME280;27061;41.648;24.568;2022-12-05T05:46:37;86500.81;;;5.09;71.64
41312;BME280;27061;41.648;24.568;2022-12-05T05:49:04;86510.38;;;5.06;72.00
41312;BME280;27061;41.648;24.568;2022-12-05T05:51:31;86483.25;;;4.85;71.73
41312;BME280;27061;41.648;24.568;2022-12-05T05:53:58;86495.06;;;4.93;70.94
41312;BME280;27061;41.648;24.568;2022-12-05T05:56:26;86470.13;;;4.79;70.80
41312;BME280;27061;41.648;24.568;2022-12-05T05:58:56;86500.69;;;5.01;70.68
41312;BME280;27061;41.648;24.568;2022-12-05T06:01:23;86490.84;;;4.86;70.59
41312;BME280;27061;41.648;24.568;2022-12-05T06:03:50;86467.94;;;4.71;70.90
41312;BME280;27061;41.648;24.568;2022-12-05T06:06:19;86483.75;;;4.73;70.41
41312;BME280;27061;41.648;24.568;2022-12-05T06:08:46;86491.44;;;4.83;70.16
41312;BME280;27061;41.648;24.568;2022-12-05T06:11:19;86467.25;;;4.71;70.16
41312;BME280;27061;41.648;24.568;2022-12-05T06:13:56;86471.31;;;4.68;70.27
41312;BME280;27061;41.648;24.568;2022-12-05T06:16:23;86477.50;;;4.68;70.64
41312;BME280;27061;41.648;24.568;2022-12-05T06:18:51;86518.53;;;5.02;70.63
41312;BME280;27061;41.648;24.568;2022-12-05T06:21:19;86518.47;;;4.98;71.15
41312;BME280;27061;41.648;24.568;2022-12-05T06:23:47;86492.00;;;4.75;71.09
41312;BME280;27061;41.648;24.568;2022-12-05T06:26:18;86525.34;;;4.99;71.56
41312;BME280;27061;41.648;24.568;2022-12-05T06:28:45;86534.97;;;5.00;71.50
41312;BME280;27061;41.648;24.568;2022-12-05T06:31:22;86512.78;;;4.86;71.10
41312;BME280;27061;41.648;24.568;2022-12-05T06:33:49;86526.50;;;4.88;70.76
41312;BME280;27061;41.648;24.568;2022-12-05T06:36:19;86542.00;;;5.11;70.71
41312;BME280;27061;41.648;24.568;2022-12-05T06:38:46;86528.72;;;4.96;71.03
41312;BME280;27061;41.648;24.568;2022-12-05T06:41:16;86546.81;;;5.11;70.82
41312;BME280;27061;41.648;24.568;2022-12-05T06:43:43;86535.75;;;5.05;70.55
41312;BME280;27061;41.648;24.568;2022-12-05T06:46:12;86544.59;;;5.01;71.02
41312;BME280;27061;41.648;24.568;2022-12-05T06:48:39;86536.66;;;4.79;71.89
41312;BME280;27061;41.648;24.568;2022-12-05T06:51:12;86492.13;;;4.43;72.02
41312;BME280;27061;41.648;24.568;2022-12-05T06:53:39;86553.19;;;4.84;72.17
41312;BME280;27061;41.648;24.568;2022-12-05T06:56:09;86526.81;;;4.66;72.24
41312;BME280;27061;41.648;24.568;2022-12-05T06:58:40;86550.47;;;4.84;72.27
41312;BME280;27061;41.648;24.568;2022-12-05T07:01:18;86508.03;;;4.51;72.50
41312;BME280;27061;41.648;24.568;2022-12-05T07:04:25;86524.78;;;4.67;72.33
41312;BME280;27061;41.648;24.568;2022-12-05T07:06:53;86546.13;;;4.72;71.98
41312;BME280;27061;41.648;24.568;2022-12-05T07:09:23;86518.84;;;4.43;73.11
41312;BME280;27061;41.648;24.568;2022-12-05T07:12:13;86541.53;;;4.83;73.06
41312;BME280;27061;41.648;24.568;2022-12-05T07:14:41;86542.22;;;4.84;72.72
41312;BME280;27061;41.648;24.568;2022-12-05T07:17:18;86518.75;;;4.74;72.46
41312;BME280;27061;41.648;24.568;2022-12-05T07:19:50;86496.56;;;4.60;73.07
41312;BME280;27061;41.648;24.568;2022-12-05T07:22:19;86516.72;;;4.77;73.25
41312;BME280;27061;41.648;24.568;2022-12-05T07:24:47;86508.31;;;4.67;73.38
41312;BME280;27061;41.648;24.568;2022-12-05T07:27:14;86498.69;;;4.64;73.03
41312;BME280;27061;41.648;24.568;2022-12-05T07:29:45;86509.91;;;4.80;73.47
41312;BME280;27061;41.648;24.568;2022-12-05T07:32:11;86508.41;;;4.71;73.67
41312;BME280;27061;41.648;24.568;2022-12-05T07:34:39;86538.44;;;5.03;73.97
41312;BME280;27061;41.648;24.568;2022-12-05T07:37:06;86540.56;;;5.06;74.35
41312;BME280;27061;41.648;24.568;2022-12-05T07:39:33;86494.78;;;4.77;74.55
41312;BME280;27061;41.648;24.568;2022-12-05T07:42:00;86497.50;;;4.77;74.83
41312;BME280;27061;41.648;24.568;2022-12-05T07:44:27;86503.03;;;4.79;74.80
41312;BME280;27061;41.648;24.568;2022-12-05T07:46:54;86555.84;;;5.18;75.16
41312;BME280;27061;41.648;24.568;2022-12-05T07:49:21;86556.56;;;5.18;75.57
41312;BME280;27061;41.648;24.568;2022-12-05T07:51:48;86552.53;;;5.25;75.97
41312;BME280;27061;41.648;24.568;2022-12-05T07:54:15;86542.00;;;5.11;76.00
41312;BME280;27061;41.648;24.568;2022-12-05T07:56:43;86522.84;;;5.13;76.04
41312;BME280;27061;41.648;24.568;2022-12-05T07:59:13;86566.56;;;5.43;76.57
41312;BME280;27061;41.648;24.568;2022-12-05T08:01:40;86567.28;;;5.46;77.18
41312;BME280;27061;41.648;24.568;2022-12-05T08:04:07;86538.88;;;5.29;77.98
41312;BME280;27061;41.648;24.568;2022-12-05T08:06:40;86538.28;;;5.35;78.34
41312;BME280;27061;41.648;24.568;2022-12-05T08:09:08;86546.75;;;5.51;78.81
41312;BME280;27061;41.648;24.568;2022-12-05T08:11:35;86521.69;;;5.27;79.19
41312;BME280;27061;41.648;24.568;2022-12-05T08:14:03;86548.03;;;5.44;79.67
41312;BME280;27061;41.648;24.568;2022-12-05T08:16:32;86544.75;;;5.53;79.57
41312;BME280;27061;41.648;24.568;2022-12-05T08:19:01;86540.75;;;5.61;79.03
41312;BME280;27061;41.648;24.568;2022-12-05T08:21:29;86538.00;;;5.63;78.89
41312;BME280;27061;41.648;24.568;2022-12-05T08:23:57;86508.13;;;5.37;79.10
41312;BME280;27061;41.648;24.568;2022-12-05T08:26:29;86541.53;;;5.67;79.49
41312;BME280;27061;41.648;24.568;2022-12-05T08:29:08;86560.53;;;5.97;79.33
41312;BME280;27061;41.648;24.568;2022-12-05T08:31:39;86569.59;;;6.06;79.64
41312;BME280;27061;41.648;24.568;2022-12-05T08:34:09;86537.66;;;5.84;79.27
41312;BME280;27061;41.648;24.568;2022-12-05T08:36:36;86515.66;;;5.82;79.02
41312;BME280;27061;41.648;24.568;2022-12-05T08:39:06;86548.97;;;6.07;79.13
41312;BME280;27061;41.648;24.568;2022-12-05T08:41:34;86520.69;;;5.98;78.42
41312;BME280;27061;41.648;24.568;2022-12-05T08:44:03;86548.59;;;6.29;78.31
41312;BME280;27061;41.648;24.568;2022-12-05T08:46:33;86533.28;;;6.15;77.91
41312;BME280;27061;41.648;24.568;2022-12-05T08:49:01;86550.72;;;6.34;77.68
41312;BME280;27061;41.648;24.568;2022-12-05T08:51:28;86526.50;;;6.20;77.35
41312;BME280;27061;41.648;24.568;2022-12-05T08:53:56;86513.41;;;6.19;77.23
41312;BME280;27061;41.648;24.568;2022-12-05T08:56:23;86501.72;;;6.18;76.96
41312;BME280;27061;41.648;24.568;2022-12-05T08:58:53;86530.31;;;6.51;77.25
41312;BME280;27061;41.648;24.568;2022-12-05T09:01:30;86538.75;;;6.70;76.17
41312;BME280;27061;41.648;24.568;2022-12-05T09:03:59;86513.19;;;6.59;76.66
41312;BME280;27061;41.648;24.568;2022-12-05T09:06:27;86544.31;;;6.74;77.32
41312;BME280;27061;41.648;24.568;2022-12-05T09:08:57;86533.44;;;6.84;77.45
41312;BME280;27061;41.648;24.568;2022-12-05T09:11:28;86531.47;;;6.94;76.39
41312;BME280;27061;41.648;24.568;2022-12-05T09:13:57;86489.22;;;6.70;76.39
41312;BME280;27061;41.648;24.568;2022-12-05T09:16:27;86521.09;;;6.91;78.33
41312;BME280;27061;41.648;24.568;2022-12-05T09:19:08;86518.28;;;6.83;76.50
41312;BME280;27061;41.648;24.568;2022-12-05T09:21:36;86469.91;;;6.64;75.88
41312;BME280;27061;41.648;24.568;2022-12-05T09:24:03;86479.88;;;6.97;76.02
41312;BME280;27061;41.648;24.568;2022-12-05T09:26:30;86516.06;;;7.42;74.21
41312;BME280;27061;41.648;24.568;2022-12-05T09:28:57;86518.19;;;7.47;74.80
41312;BME280;27061;41.648;24.568;2022-12-05T09:31:25;86461.44;;;7.10;73.55
41312;BME280;27061;41.648;24.568;2022-12-05T09:33:56;86464.88;;;7.12;74.82
41312;BME280;27061;41.648;24.568;2022-12-05T09:36:29;86506.59;;;7.59;73.49
41312;BME280;27061;41.648;24.568;2022-12-05T09:39:02;86501.03;;;7.55;71.17
41312;BME280;27061;41.648;24.568;2022-12-05T09:44:42;86495.66;;;7.71;71.71
41312;BME280;27061;41.648;24.568;2022-12-05T09:50:23;86469.28;;;7.46;68.87
41312;BME280;27061;41.648;24.568;2022-12-05T09:53:01;86496.97;;;7.66;68.54
41312;BME280;27061;41.648;24.568;2022-12-05T09:56:03;86497.78;;;7.81;68.99
41312;BME280;27061;41.648;24.568;2022-12-05T09:58:50;86483.34;;;7.82;69.55
41312;BME280;27061;41.648;24.568;2022-12-05T10:04:52;86470.94;;;7.85;68.38
41312;BME280;27061;41.648;24.568;2022-12-05T10:10:13;86482.75;;;8.02;71.45
41312;BME280;27061;41.648;24.568;2022-12-05T10:13:05;86471.06;;;8.07;72.20
41312;BME280;27061;41.648;24.568;2022-12-05T10:15:38;86437.88;;;7.89;72.77
41312;BME280;27061;41.648;24.568;2022-12-05T10:20:51;86478.06;;;8.27;66.85
41312;BME280;27061;41.648;24.568;2022-12-05T10:23:26;86480.84;;;8.29;67.29
41312;BME280;27061;41.648;24.568;2022-12-05T10:26:16;86471.81;;;8.20;67.82
41312;BME280;27061;41.648;24.568;2022-12-05T10:31:24;86480.75;;;8.13;68.92
41312;BME280;27061;41.648;24.568;2022-12-05T10:34:02;86459.97;;;7.95;69.61
41312;BME280;27061;41.648;24.568;2022-12-05T10:36:29;86425.38;;;7.70;68.94
41312;BME280;27061;41.648;24.568;2022-12-05T10:39:00;86402.50;;;7.47;69.43
41312;BME280;27061;41.648;24.568;2022-12-05T10:41:32;86418.44;;;7.61;69.68
41312;BME280;27061;41.648;24.568;2022-12-05T10:44:00;86469.66;;;8.02;69.53
41312;BME280;27061;41.648;24.568;2022-12-05T10:46:27;86425.31;;;7.60;70.36
41312;BME280;27061;41.648;24.568;2022-12-05T10:48:55;86442.63;;;7.77;71.92
41312;BME280;27061;41.648;24.568;2022-12-05T10:51:26;86453.72;;;7.89;73.36
41312;BME280;27061;41.648;24.568;2022-12-05T10:54:01;86413.56;;;7.55;74.03
41312;BME280;27061;41.648;24.568;2022-12-05T10:56:46;86430.91;;;7.76;73.84
41312;BME280;27061;41.648;24.568;2022-12-05T10:59:17;86453.06;;;7.92;73.79
41312;BME280;27061;41.648;24.568;2022-12-05T11:01:49;86381.16;;;7.48;72.81
41312;BME280;27061;41.648;24.568;2022-12-05T11:04:22;86464.88;;;8.09;73.07
41312;BME280;27061;41.648;24.568;2022-12-05T11:09:29;86440.69;;;7.99;73.41
41312;BME280;27061;41.648;24.568;2022-12-05T11:12:14;86456.66;;;8.19;73.11
41312;BME280;27061;41.648;24.568;2022-12-05T11:15:18;86458.66;;;8.04;73.74
41312;BME280;27061;41.648;24.568;2022-12-05T11:17:48;86458.72;;;8.19;73.30
41312;BME280;27061;41.648;24.568;2022-12-05T11:22:55;86441.47;;;8.16;72.43
41312;BME280;27061;41.648;24.568;2022-12-05T11:25:34;86461.50;;;8.27;70.84
41312;BME280;27061;41.648;24.568;2022-12-05T11:28:29;86452.56;;;8.26;71.36
41312;BME280;27061;41.648;24.568;2022-12-05T11:31:04;86451.84;;;8.28;71.66
41312;BME280;27061;41.648;24.568;2022-12-05T11:33:34;86413.84;;;8.08;71.63
41312;BME280;27061;41.648;24.568;2022-12-05T11:36:23;86443.66;;;8.38;71.63
41312;BME280;27061;41.648;24.568;2022-12-05T11:38:57;86436.75;;;8.39;71.88
41312;BME280;27061;41.648;24.568;2022-12-05T11:44:28;86439.56;;;8.47;69.50
41312;BME280;27061;41.648;24.568;2022-12-05T11:52:51;86396.63;;;8.12;71.10
41312;BME280;27061;41.648;24.568;2022-12-05T11:55:23;86426.41;;;8.33;72.26
41312;BME280;27061;41.648;24.568;2022-12-05T12:06:24;86415.41;;;8.48;72.34
41312;BME280;27061;41.648;24.568;2022-12-05T12:17:52;86382.28;;;8.43;71.70
41312;BME280;27061;41.648;24.568;2022-12-05T12:25:48;86403.72;;;8.59;70.87
41312;BME280;27061;41.648;24.568;2022-12-05T12:28:38;86410.66;;;8.68;71.20
41312;BME280;27061;41.648;24.568;2022-12-05T12:36:52;86393.41;;;8.72;71.23
41312;BME280;27061;41.648;24.568;2022-12-05T12:42:17;86391.34;;;8.80;71.20
41312;BME280;27061;41.648;24.568;2022-12-05T12:47:57;86401.00;;;8.79;71.38
41312;BME280;27061;41.648;24.568;2022-12-05T12:50:32;86384.44;;;8.73;71.05
41312;BME280;27061;41.648;24.568;2022-12-05T12:53:44;86389.28;;;8.87;70.59
41312;BME280;27061;41.648;24.568;2022-12-05T12:56:25;86387.91;;;8.86;70.59
41312;BME280;27061;41.648;24.568;2022-12-05T12:59:12;86385.84;;;8.87;70.20
41312;BME280;27061;41.648;24.568;2022-12-05T13:04:25;86395.53;;;8.90;69.78
41312;BME280;27061;41.648;24.568;2022-12-05T13:07:03;86362.34;;;8.67;70.06
41312;BME280;27061;41.648;24.568;2022-12-05T13:12:23;86385.84;;;8.93;69.84
41312;BME280;27061;41.648;24.568;2022-12-05T13:14:59;86351.31;;;8.67;69.85
41312;BME280;27061;41.648;24.568;2022-12-05T13:17:29;86359.59;;;8.65;69.57
41312;BME280;27061;41.648;24.568;2022-12-05T13:19:58;86395.53;;;8.96;69.28
41312;BME280;27061;41.648;24.568;2022-12-05T13:22:27;86369.28;;;8.85;69.29
41312;BME280;27061;41.648;24.568;2022-12-05T13:24:54;86385.16;;;8.92;69.52
41312;BME280;27061;41.648;24.568;2022-12-05T13:27:25;86365.13;;;8.77;69.57
41312;BME280;27061;41.648;24.568;2022-12-05T13:29:57;86359.59;;;8.81;69.95
41312;BME280;27061;41.648;24.568;2022-12-05T13:32:34;86369.97;;;8.87;69.92
41312;BME280;27061;41.648;24.568;2022-12-05T13:35:40;86378.97;;;9.00;69.96
41312;BME280;27061;41.648;24.568;2022-12-05T13:38:31;86337.47;;;8.61;70.19
41312;BME280;27061;41.648;24.568;2022-12-05T13:41:18;86372.03;;;8.89;70.45
41312;BME280;27061;41.648;24.568;2022-12-05T13:44:04;86370.66;;;8.84;70.45
41312;BME280;27061;41.648;24.568;2022-12-05T13:46:39;86381.69;;;8.84;70.07
41312;BME280;27061;41.648;24.568;2022-12-05T13:49:22;86365.09;;;8.63;70.09
41312;BME280;27061;41.648;24.568;2022-12-05T13:52:04;86374.09;;;8.84;70.06
41312;BME280;27061;41.648;24.568;2022-12-05T13:54:34;86376.19;;;8.88;69.52
41312;BME280;27061;41.648;24.568;2022-12-05T13:57:08;86378.94;;;8.84;69.67
41312;BME280;27061;41.648;24.568;2022-12-05T14:07:47;86387.22;;;8.86;68.68
41312;BME280;27061;41.648;24.568;2022-12-05T14:15:50;86383.06;;;8.78;69.36
41312;BME280;27061;41.648;24.568;2022-12-05T14:21:08;86381.69;;;8.77;69.65
41312;BME280;27061;41.648;24.568;2022-12-05T14:38:03;86390.59;;;8.56;69.10
41312;BME280;27061;41.648;24.568;2022-12-05T14:40:39;86363.59;;;8.28;69.47
41312;BME280;27061;41.648;24.568;2022-12-05T14:43:25;86387.81;;;8.50;69.79
41312;BME280;27061;41.648;24.568;2022-12-05T14:48:44;86384.38;;;8.51;69.70
41312;BME280;27061;41.648;24.568;2022-12-05T14:56:43;86396.09;;;8.43;69.37
41312;BME280;27061;41.648;24.568;2022-12-05T15:02:03;86396.78;;;8.46;69.34
41312;BME280;27061;41.648;24.568;2022-12-05T15:04:51;86400.91;;;8.41;69.45
41312;BME280;27061;41.648;24.568;2022-12-05T15:07:35;86364.25;;;8.14;69.58
41312;BME280;27061;41.648;24.568;2022-12-05T15:10:24;86400.91;;;8.35;69.68
41312;BME280;27061;41.648;24.568;2022-12-05T15:12:59;86394.59;;;8.22;69.85
41312;BME280;27061;41.648;24.568;2022-12-05T15:15:38;86363.47;;;7.95;69.84
41312;BME280;27061;41.648;24.568;2022-12-05T15:18:25;86411.88;;;8.29;69.94
41312;BME280;27061;41.648;24.568;2022-12-05T15:26:25;86407.03;;;8.23;69.87
41312;BME280;27061;41.648;24.568;2022-12-05T15:31:50;86410.47;;;8.22;69.88
41312;BME280;27061;41.648;24.568;2022-12-05T15:42:51;86405.59;;;8.10;70.42
41312;BME280;27061;41.648;24.568;2022-12-05T15:47:54;86386.88;;;7.88;70.57
41312;BME280;27061;41.648;24.568;2022-12-05T15:50:27;86409.00;;;8.00;70.87
41312;BME280;27061;41.648;24.568;2022-12-05T15:56:15;86395.19;;;7.94;70.54
41312;BME280;27061;41.648;24.568;2022-12-05T15:58:44;86385.50;;;7.87;70.47
41312;BME280;27061;41.648;24.568;2022-12-05T16:01:21;86400.72;;;8.00;70.49
41312;BME280;27061;41.648;24.568;2022-12-05T16:03:57;86357.78;;;7.59;70.45
41312;BME280;27061;41.648;24.568;2022-12-05T16:06:46;86415.19;;;8.01;70.52
41312;BME280;27061;41.648;24.568;2022-12-05T16:09:19;86410.34;;;7.97;70.61
41312;BME280;27061;41.648;24.568;2022-12-05T16:11:51;86411.69;;;7.90;70.69
41312;BME280;27061;41.648;24.568;2022-12-05T16:14:20;86366.03;;;7.57;70.79
41312;BME280;27061;41.648;24.568;2022-12-05T16:17:13;86420.00;;;7.92;70.47
41312;BME280;27061;41.648;24.568;2022-12-05T16:19:41;86404.09;;;7.83;70.39
41312;BME280;27061;41.648;24.568;2022-12-05T16:24:59;86421.34;;;7.89;70.60
41312;BME280;27061;41.648;24.568;2022-12-05T16:27:36;86414.41;;;7.84;70.78
41312;BME280;27061;41.648;24.568;2022-12-05T16:32:33;86415.09;;;7.81;70.11
41312;BME280;27061;41.648;24.568;2022-12-05T16:35:01;86407.53;;;7.81;70.13
41312;BME280;27061;41.648;24.568;2022-12-05T16:37:29;86419.91;;;7.84;69.55
41312;BME280;27061;41.648;24.568;2022-12-05T16:39:56;86415.09;;;7.81;69.52
41312;BME280;27061;41.648;24.568;2022-12-05T16:42:25;86375.66;;;7.50;69.83
41312;BME280;27061;41.648;24.568;2022-12-05T16:44:57;86411.59;;;7.74;69.78